sensor_id;sensor_type;location;lat;lon;timestamp;P1;durP1;ratioP1;P2;durP2;ratioP2
38427;SDS011;24211;49.980;19.776;2023-05-07T00:01:04;12.88;;;7.22;;
38427;SDS011;24211;49.980;19.776;2023-05-07T00:03:32;13.02;;;7.25;;
38427;SDS011;24211;49.980;19.776;2023-05-07T00:06:00;11.48;;;7.03;;
38427;SDS011;24211;49.980;19.776;2023-05-07T00:08:27;12.70;;;7.07;;
38427;SDS011;24211;49.980;19.776;2023-05-07T00:10:54;13.05;;;7.20;;
38427;SDS011;24211;49.980;19.776;2023-05-07T00:13:22;12.80;;;6.82;;
38427;SDS011;24211;49.980;19.776;2023-05-07T00:15:49;11.25;;;6.50;;
38427;SDS011;24211;49.980;19.776;2023-05-07T00:18:16;11.63;;;6.38;;
38427;SDS011;24211;49.980;19.776;2023-05-07T00:20:47;11.55;;;6.28;;
38427;SDS011;24211;49.980;19.776;2023-05-07T00:23:14;13.38;;;5.97;;
38427;SDS011;24211;49.980;19.776;2023-05-07T00:25:42;10.38;;;5.93;;
38427;SDS011;24211;49.980;19.776;2023-05-07T00:28:09;11.15;;;6.32;;
38427;SDS011;24211;49.980;19.776;2023-05-07T00:30:36;9.68;;;6.05;;
38427;SDS011;24211;49.980;19.776;2023-05-07T00:33:03;11.10;;;5.63;;
38427;SDS011;24211;49.980;19.776;2023-05-07T00:35:31;10.38;;;6.03;;
38427;SDS011;24211;49.980;19.776;2023-05-07T00:37:58;10.38;;;6.10;;
38427;SDS011;24211;49.980;19.776;2023-05-07T00:40:27;10.50;;;6.00;;
38427;SDS011;24211;49.980;19.776;2023-05-07T00:42:55;10.27;;;5.68;;
38427;SDS011;24211;49.980;19.776;2023-05-07T00:45:26;10.82;;;5.53;;
38427;SDS011;24211;49.980;19.776;2023-05-07T00:47:55;12.15;;;6.68;;
38427;SDS011;24211;49.980;19.776;2023-05-07T00:50:26;11.98;;;6.43;;
38427;SDS011;24211;49.980;19.776;2023-05-07T00:52:55;11.90;;;6.75;;
38427;SDS011;24211;49.980;19.776;2023-05-07T00:55:23;11.45;;;6.70;;
38427;SDS011;24211;49.980;19.776;2023-05-07T00:57:51;11.18;;;6.50;;
38427;SDS011;24211;49.980;19.776;2023-05-07T01:00:18;13.45;;;6.65;;
38427;SDS011;24211;49.980;19.776;2023-05-07T01:02:46;11.00;;;6.15;;
38427;SDS011;24211;49.980;19.776;2023-05-07T01:05:15;12.05;;;6.10;;
38427;SDS011;24211;49.980;19.776;2023-05-07T01:07:45;11.13;;;6.00;;
38427;SDS011;24211;49.980;19.776;2023-05-07T01:10:14;11.45;;;6.50;;
38427;SDS011;24211;49.980;19.776;2023-05-07T01:12:42;10.45;;;6.40;;
38427;SDS011;24211;49.980;19.776;2023-05-07T01:15:12;12.10;;;6.63;;
38427;SDS011;24211;49.980;19.776;2023-05-07T01:17:40;12.82;;;6.75;;
38427;SDS011;24211;49.980;19.776;2023-05-07T01:20:39;11.45;;;6.95;;
38427;SDS011;24211;49.980;19.776;2023-05-07T01:23:08;15.70;;;7.70;;
38427;SDS011;24211;49.980;19.776;2023-05-07T01:25:38;13.20;;;7.45;;
38427;SDS011;24211;49.980;19.776;2023-05-07T01:28:06;12.95;;;7.50;;
38427;SDS011;24211;49.980;19.776;2023-05-07T01:30:36;11.48;;;6.50;;
38427;SDS011;24211;49.980;19.776;2023-05-07T01:33:13;12.75;;;7.30;;
38427;SDS011;24211;49.980;19.776;2023-05-07T01:35:48;12.80;;;6.72;;
38427;SDS011;24211;49.980;19.776;2023-05-07T01:38:21;11.68;;;6.32;;
38427;SDS011;24211;49.980;19.776;2023-05-07T01:40:50;10.68;;;6.18;;
38427;SDS011;24211;49.980;19.776;2023-05-07T01:43:18;11.35;;;6.05;;
38427;SDS011;24211;49.980;19.776;2023-05-07T01:45:46;10.98;;;6.50;;
38427;SDS011;24211;49.980;19.776;2023-05-07T01:48:15;12.02;;;6.30;;
38427;SDS011;24211;49.980;19.776;2023-05-07T01:50:43;10.52;;;6.10;;
38427;SDS011;24211;49.980;19.776;2023-05-07T01:53:11;12.85;;;6.53;;
38427;SDS011;24211;49.980;19.776;2023-05-07T01:55:39;11.27;;;6.28;;
38427;SDS011;24211;49.980;19.776;2023-05-07T01:58:07;11.77;;;6.53;;
38427;SDS011;24211;49.980;19.776;2023-05-07T02:00:34;10.18;;;6.15;;
38427;SDS011;24211;49.980;19.776;2023-05-07T02:03:02;10.60;;;5.90;;
38427;SDS011;24211;49.980;19.776;2023-05-07T02:05:52;13.68;;;7.05;;
38427;SDS011;24211;49.980;19.776;2023-05-07T02:08:46;12.25;;;5.90;;
38427;SDS011;24211;49.980;19.776;2023-05-07T02:11:15;11.30;;;6.38;;
38427;SDS011;24211;49.980;19.776;2023-05-07T02:13:42;11.35;;;6.32;;
38427;SDS011;24211;49.980;19.776;2023-05-07T02:16:10;13.75;;;6.40;;
38427;SDS011;24211;49.980;19.776;2023-05-07T02:18:38;11.35;;;6.57;;
38427;SDS011;24211;49.980;19.776;2023-05-07T02:21:07;11.68;;;6.57;;
38427;SDS011;24211;49.980;19.776;2023-05-07T02:23:34;12.85;;;6.63;;
38427;SDS011;24211;49.980;19.776;2023-05-07T02:26:01;13.02;;;7.28;;
38427;SDS011;24211;49.980;19.776;2023-05-07T02:28:30;13.35;;;6.63;;
38427;SDS011;24211;49.980;19.776;2023-05-07T02:31:04;13.90;;;6.65;;
38427;SDS011;24211;49.980;19.776;2023-05-07T02:33:32;11.48;;;6.30;;
38427;SDS011;24211;49.980;19.776;2023-05-07T02:36:09;14.57;;;6.43;;
38427;SDS011;24211;49.980;19.776;2023-05-07T02:38:50;15.45;;;6.40;;
38427;SDS011;24211;49.980;19.776;2023-05-07T02:41:17;12.68;;;6.10;;
38427;SDS011;24211;49.980;19.776;2023-05-07T02:43:44;14.13;;;6.20;;
38427;SDS011;24211;49.980;19.776;2023-05-07T02:46:12;12.90;;;6.38;;
38427;SDS011;24211;49.980;19.776;2023-05-07T02:48:45;13.75;;;7.07;;
38427;SDS011;24211;49.980;19.776;2023-05-07T02:51:12;13.15;;;6.50;;
38427;SDS011;24211;49.980;19.776;2023-05-07T02:53:41;12.73;;;6.78;;
38427;SDS011;24211;49.980;19.776;2023-05-07T02:56:08;13.57;;;6.60;;
38427;SDS011;24211;49.980;19.776;2023-05-07T02:58:35;11.77;;;6.10;;
38427;SDS011;24211;49.980;19.776;2023-05-07T03:01:04;14.13;;;6.10;;
38427;SDS011;24211;49.980;19.776;2023-05-07T03:03:44;12.20;;;6.28;;
38427;SDS011;24211;49.980;19.776;2023-05-07T03:06:12;10.32;;;5.50;;
38427;SDS011;24211;49.980;19.776;2023-05-07T03:08:39;11.98;;;5.82;;
38427;SDS011;24211;49.980;19.776;2023-05-07T03:11:07;10.32;;;5.53;;
38427;SDS011;24211;49.980;19.776;2023-05-07T03:13:34;10.63;;;5.45;;
38427;SDS011;24211;49.980;19.776;2023-05-07T03:16:02;10.85;;;5.70;;
38427;SDS011;24211;49.980;19.776;2023-05-07T03:18:30;9.45;;;5.20;;
38427;SDS011;24211;49.980;19.776;2023-05-07T03:20:57;12.70;;;5.25;;
38427;SDS011;24211;49.980;19.776;2023-05-07T03:23:25;11.98;;;5.32;;
38427;SDS011;24211;49.980;19.776;2023-05-07T03:25:52;9.93;;;5.30;;
38427;SDS011;24211;49.980;19.776;2023-05-07T03:28:20;9.25;;;5.05;;
38427;SDS011;24211;49.980;19.776;2023-05-07T03:30:53;10.43;;;4.50;;
38427;SDS011;24211;49.980;19.776;2023-05-07T03:33:21;9.57;;;4.72;;
38427;SDS011;24211;49.980;19.776;2023-05-07T03:35:49;8.90;;;4.45;;
38427;SDS011;24211;49.980;19.776;2023-05-07T03:38:21;8.70;;;4.22;;
38427;SDS011;24211;49.980;19.776;2023-05-07T03:40:49;9.15;;;4.47;;
38427;SDS011;24211;49.980;19.776;2023-05-07T03:43:16;9.07;;;3.95;;
38427;SDS011;24211;49.980;19.776;2023-05-07T03:48:21;7.47;;;3.60;;
38427;SDS011;24211;49.980;19.776;2023-05-07T03:50:50;7.32;;;3.63;;
38427;SDS011;24211;49.980;19.776;2023-05-07T03:53:19;7.20;;;3.88;;
38427;SDS011;24211;49.980;19.776;2023-05-07T03:55:46;6.18;;;3.55;;
38427;SDS011;24211;49.980;19.776;2023-05-07T03:58:13;7.30;;;3.60;;
38427;SDS011;24211;49.980;19.776;2023-05-07T04:00:42;9.45;;;4.65;;
38427;SDS011;24211;49.980;19.776;2023-05-07T04:03:19;7.15;;;3.70;;
38427;SDS011;24211;49.980;19.776;2023-05-07T04:05:47;8.40;;;3.50;;
38427;SDS011;24211;49.980;19.776;2023-05-07T04:08:14;6.53;;;3.40;;
38427;SDS011;24211;49.980;19.776;2023-05-07T04:10:46;6.20;;;3.10;;
38427;SDS011;24211;49.980;19.776;2023-05-07T04:13:13;7.03;;;3.40;;
38427;SDS011;24211;49.980;19.776;2023-05-07T04:15:41;5.55;;;3.00;;
38427;SDS011;24211;49.980;19.776;2023-05-07T04:18:11;6.78;;;3.55;;
38427;SDS011;24211;49.980;19.776;2023-05-07T04:20:42;8.77;;;3.60;;
38427;SDS011;24211;49.980;19.776;2023-05-07T04:23:12;5.90;;;2.50;;
38427;SDS011;24211;49.980;19.776;2023-05-07T04:25:40;6.18;;;2.70;;
38427;SDS011;24211;49.980;19.776;2023-05-07T04:28:21;5.88;;;2.40;;
38427;SDS011;24211;49.980;19.776;2023-05-07T04:30:51;4.35;;;2.25;;
38427;SDS011;24211;49.980;19.776;2023-05-07T04:33:19;5.30;;;1.95;;
38427;SDS011;24211;49.980;19.776;2023-05-07T04:35:48;4.15;;;1.83;;
38427;SDS011;24211;49.980;19.776;2023-05-07T04:38:15;4.40;;;1.90;;
38427;SDS011;24211;49.980;19.776;2023-05-07T04:40:44;3.25;;;1.52;;
38427;SDS011;24211;49.980;19.776;2023-05-07T04:43:17;4.03;;;1.58;;
38427;SDS011;24211;49.980;19.776;2023-05-07T04:45:51;3.67;;;1.70;;
38427;SDS011;24211;49.980;19.776;2023-05-07T04:48:22;4.30;;;1.58;;
38427;SDS011;24211;49.980;19.776;2023-05-07T04:50:51;2.75;;;1.45;;
38427;SDS011;24211;49.980;19.776;2023-05-07T04:53:19;3.00;;;1.40;;
38427;SDS011;24211;49.980;19.776;2023-05-07T04:55:54;2.83;;;1.33;;
38427;SDS011;24211;49.980;19.776;2023-05-07T04:58:26;3.03;;;1.48;;
38427;SDS011;24211;49.980;19.776;2023-05-07T05:00:54;3.08;;;1.40;;
38427;SDS011;24211;49.980;19.776;2023-05-07T05:03:22;3.28;;;1.60;;
38427;SDS011;24211;49.980;19.776;2023-05-07T05:05:50;4.60;;;1.50;;
38427;SDS011;24211;49.980;19.776;2023-05-07T05:08:20;3.45;;;1.65;;
38427;SDS011;24211;49.980;19.776;2023-05-07T05:10:48;3.55;;;1.42;;
38427;SDS011;24211;49.980;19.776;2023-05-07T05:13:16;3.83;;;1.73;;
38427;SDS011;24211;49.980;19.776;2023-05-07T05:15:45;2.28;;;1.17;;
38427;SDS011;24211;49.980;19.776;2023-05-07T05:18:12;3.95;;;1.80;;
38427;SDS011;24211;49.980;19.776;2023-05-07T05:20:39;3.70;;;1.60;;
38427;SDS011;24211;49.980;19.776;2023-05-07T05:23:07;4.65;;;2.10;;
38427;SDS011;24211;49.980;19.776;2023-05-07T05:25:36;2.95;;;1.33;;
38427;SDS011;24211;49.980;19.776;2023-05-07T05:28:08;3.40;;;1.50;;
38427;SDS011;24211;49.980;19.776;2023-05-07T05:30:35;3.95;;;1.60;;
38427;SDS011;24211;49.980;19.776;2023-05-07T05:33:02;3.40;;;1.45;;
38427;SDS011;24211;49.980;19.776;2023-05-07T05:35:30;3.15;;;1.30;;
38427;SDS011;24211;49.980;19.776;2023-05-07T05:38:02;3.53;;;1.60;;
38427;SDS011;24211;49.980;19.776;2023-05-07T05:40:29;4.50;;;1.67;;
38427;SDS011;24211;49.980;19.776;2023-05-07T05:42:57;4.10;;;1.30;;
38427;SDS011;24211;49.980;19.776;2023-05-07T05:45:24;2.10;;;1.10;;
38427;SDS011;24211;49.980;19.776;2023-05-07T05:47:52;2.13;;;1.05;;
38427;SDS011;24211;49.980;19.776;2023-05-07T05:50:22;3.10;;;1.20;;
38427;SDS011;24211;49.980;19.776;2023-05-07T05:52:50;2.13;;;1.10;;
38427;SDS011;24211;49.980;19.776;2023-05-07T05:55:18;2.58;;;1.05;;
38427;SDS011;24211;49.980;19.776;2023-05-07T05:57:46;2.58;;;1.10;;
38427;SDS011;24211;49.980;19.776;2023-05-07T06:00:15;2.10;;;1.00;;
38427;SDS011;24211;49.980;19.776;2023-05-07T06:02:46;2.83;;;1.30;;
38427;SDS011;24211;49.980;19.776;2023-05-07T06:05:19;2.80;;;1.05;;
38427;SDS011;24211;49.980;19.776;2023-05-07T06:07:51;2.47;;;1.10;;
38427;SDS011;24211;49.980;19.776;2023-05-07T06:10:18;1.98;;;1.05;;
38427;SDS011;24211;49.980;19.776;2023-05-07T06:12:46;1.77;;;0.90;;
38427;SDS011;24211;49.980;19.776;2023-05-07T06:15:14;2.00;;;1.00;;
38427;SDS011;24211;49.980;19.776;2023-05-07T06:17:42;2.50;;;1.00;;
38427;SDS011;24211;49.980;19.776;2023-05-07T06:20:10;3.00;;;1.23;;
38427;SDS011;24211;49.980;19.776;2023-05-07T06:22:39;2.78;;;1.25;;
38427;SDS011;24211;49.980;19.776;2023-05-07T06:25:09;2.80;;;1.20;;
38427;SDS011;24211;49.980;19.776;2023-05-07T06:27:37;2.50;;;1.00;;
38427;SDS011;24211;49.980;19.776;2023-05-07T06:30:06;3.38;;;1.20;;
38427;SDS011;24211;49.980;19.776;2023-05-07T06:32:34;4.55;;;1.52;;
38427;SDS011;24211;49.980;19.776;2023-05-07T06:35:03;2.45;;;1.17;;
38427;SDS011;24211;49.980;19.776;2023-05-07T06:37:34;4.45;;;1.40;;
38427;SDS011;24211;49.980;19.776;2023-05-07T06:40:04;2.65;;;1.20;;
38427;SDS011;24211;49.980;19.776;2023-05-07T06:42:36;2.35;;;0.90;;
38427;SDS011;24211;49.980;19.776;2023-05-07T06:45:22;2.88;;;1.10;;
38427;SDS011;24211;49.980;19.776;2023-05-07T06:47:53;3.05;;;1.25;;
38427;SDS011;24211;49.980;19.776;2023-05-07T06:50:22;3.15;;;1.20;;
38427;SDS011;24211;49.980;19.776;2023-05-07T06:52:53;2.95;;;1.30;;
38427;SDS011;24211;49.980;19.776;2023-05-07T06:55:20;2.60;;;1.30;;
38427;SDS011;24211;49.980;19.776;2023-05-07T06:57:48;2.72;;;1.25;;
38427;SDS011;24211;49.980;19.776;2023-05-07T07:00:17;2.88;;;1.27;;
38427;SDS011;24211;49.980;19.776;2023-05-07T07:02:50;3.40;;;1.40;;
38427;SDS011;24211;49.980;19.776;2023-05-07T07:05:20;2.83;;;1.30;;
38427;SDS011;24211;49.980;19.776;2023-05-07T07:07:48;2.28;;;1.00;;
38427;SDS011;24211;49.980;19.776;2023-05-07T07:10:20;2.53;;;1.00;;
38427;SDS011;24211;49.980;19.776;2023-05-07T07:12:50;2.40;;;1.10;;
38427;SDS011;24211;49.980;19.776;2023-05-07T07:15:19;2.30;;;1.00;;
38427;SDS011;24211;49.980;19.776;2023-05-07T07:17:52;2.80;;;1.10;;
38427;SDS011;24211;49.980;19.776;2023-05-07T07:20:21;3.70;;;1.77;;
38427;SDS011;24211;49.980;19.776;2023-05-07T07:22:49;2.25;;;1.20;;
38427;SDS011;24211;49.980;19.776;2023-05-07T07:25:16;2.45;;;1.00;;
38427;SDS011;24211;49.980;19.776;2023-05-07T07:27:44;2.58;;;1.17;;
38427;SDS011;24211;49.980;19.776;2023-05-07T07:30:13;2.10;;;1.00;;
38427;SDS011;24211;49.980;19.776;2023-05-07T07:32:45;3.60;;;1.80;;
38427;SDS011;24211;49.980;19.776;2023-05-07T07:35:13;2.20;;;1.10;;
38427;SDS011;24211;49.980;19.776;2023-05-07T07:37:42;2.25;;;1.20;;
38427;SDS011;24211;49.980;19.776;2023-05-07T07:40:09;2.03;;;1.10;;
38427;SDS011;24211;49.980;19.776;2023-05-07T07:42:39;4.05;;;1.27;;
38427;SDS011;24211;49.980;19.776;2023-05-07T07:45:06;2.60;;;1.50;;
38427;SDS011;24211;49.980;19.776;2023-05-07T07:47:39;3.17;;;1.35;;
38427;SDS011;24211;49.980;19.776;2023-05-07T07:50:07;2.45;;;1.30;;
38427;SDS011;24211;49.980;19.776;2023-05-07T07:52:36;2.35;;;1.20;;
38427;SDS011;24211;49.980;19.776;2023-05-07T07:55:06;3.70;;;1.40;;
38427;SDS011;24211;49.980;19.776;2023-05-07T07:57:35;2.58;;;1.30;;
38427;SDS011;24211;49.980;19.776;2023-05-07T08:00:03;3.03;;;1.38;;
38427;SDS011;24211;49.980;19.776;2023-05-07T08:02:42;2.47;;;1.20;;
38427;SDS011;24211;49.980;19.776;2023-05-07T08:05:15;2.42;;;1.48;;
38427;SDS011;24211;49.980;19.776;2023-05-07T08:07:43;3.45;;;1.77;;
38427;SDS011;24211;49.980;19.776;2023-05-07T08:10:12;4.65;;;1.77;;
38427;SDS011;24211;49.980;19.776;2023-05-07T08:12:39;2.70;;;1.55;;
38427;SDS011;24211;49.980;19.776;2023-05-07T08:15:07;3.75;;;2.17;;
38427;SDS011;24211;49.980;19.776;2023-05-07T08:17:35;3.40;;;1.70;;
38427;SDS011;24211;49.980;19.776;2023-05-07T08:20:02;2.50;;;1.50;;
38427;SDS011;24211;49.980;19.776;2023-05-07T08:22:30;3.20;;;1.80;;
38427;SDS011;24211;49.980;19.776;2023-05-07T08:24:58;3.75;;;1.60;;
38427;SDS011;24211;49.980;19.776;2023-05-07T08:27:27;4.75;;;2.40;;
38427;SDS011;24211;49.980;19.776;2023-05-07T08:29:54;3.17;;;1.60;;
38427;SDS011;24211;49.980;19.776;2023-05-07T08:32:22;2.78;;;1.70;;
38427;SDS011;24211;49.980;19.776;2023-05-07T08:34:49;3.17;;;1.70;;
38427;SDS011;24211;49.980;19.776;2023-05-07T08:37:17;5.18;;;1.70;;
38427;SDS011;24211;49.980;19.776;2023-05-07T08:39:45;4.43;;;1.80;;
38427;SDS011;24211;49.980;19.776;2023-05-07T08:42:18;3.70;;;1.80;;
38427;SDS011;24211;49.980;19.776;2023-05-07T08:44:50;2.38;;;1.50;;
38427;SDS011;24211;49.980;19.776;2023-05-07T08:47:22;3.20;;;1.67;;
38427;SDS011;24211;49.980;19.776;2023-05-07T08:50:01;3.33;;;1.80;;
38427;SDS011;24211;49.980;19.776;2023-05-07T08:52:29;4.95;;;2.45;;
38427;SDS011;24211;49.980;19.776;2023-05-07T08:54:56;4.60;;;1.90;;
38427;SDS011;24211;49.980;19.776;2023-05-07T08:57:26;4.35;;;2.20;;
38427;SDS011;24211;49.980;19.776;2023-05-07T08:59:53;5.05;;;2.40;;
38427;SDS011;24211;49.980;19.776;2023-05-07T09:02:21;3.10;;;1.70;;
38427;SDS011;24211;49.980;19.776;2023-05-07T09:04:49;4.97;;;1.98;;
38427;SDS011;24211;49.980;19.776;2023-05-07T09:07:17;3.60;;;1.85;;
38427;SDS011;24211;49.980;19.776;2023-05-07T09:09:46;4.45;;;1.90;;
38427;SDS011;24211;49.980;19.776;2023-05-07T09:12:14;3.55;;;1.75;;
38427;SDS011;24211;49.980;19.776;2023-05-07T09:14:41;3.28;;;1.70;;
38427;SDS011;24211;49.980;19.776;2023-05-07T09:17:09;5.60;;;3.03;;
38427;SDS011;24211;49.980;19.776;2023-05-07T09:19:36;4.15;;;2.30;;
38427;SDS011;24211;49.980;19.776;2023-05-07T09:22:06;5.28;;;2.53;;
38427;SDS011;24211;49.980;19.776;2023-05-07T09:24:50;4.07;;;2.40;;
38427;SDS011;24211;49.980;19.776;2023-05-07T09:27:21;3.88;;;2.20;;
38427;SDS011;24211;49.980;19.776;2023-05-07T09:29:49;4.03;;;2.30;;
38427;SDS011;24211;49.980;19.776;2023-05-07T09:32:17;5.63;;;3.15;;
38427;SDS011;24211;49.980;19.776;2023-05-07T09:34:45;4.63;;;2.53;;
38427;SDS011;24211;49.980;19.776;2023-05-07T09:37:16;4.55;;;2.20;;
38427;SDS011;24211;49.980;19.776;2023-05-07T09:39:45;6.47;;;3.65;;
38427;SDS011;24211;49.980;19.776;2023-05-07T09:42:23;6.13;;;3.28;;
38427;SDS011;24211;49.980;19.776;2023-05-07T09:44:53;6.57;;;3.58;;
38427;SDS011;24211;49.980;19.776;2023-05-07T09:47:24;7.45;;;3.78;;
38427;SDS011;24211;49.980;19.776;2023-05-07T09:49:58;6.63;;;3.60;;
38427;SDS011;24211;49.980;19.776;2023-05-07T09:52:32;7.63;;;4.25;;
38427;SDS011;24211;49.980;19.776;2023-05-07T09:55:03;9.25;;;3.88;;
38427;SDS011;24211;49.980;19.776;2023-05-07T09:57:33;6.85;;;3.78;;
38427;SDS011;24211;49.980;19.776;2023-05-07T10:00:06;6.28;;;3.38;;
38427;SDS011;24211;49.980;19.776;2023-05-07T10:02:48;8.00;;;3.90;;
38427;SDS011;24211;49.980;19.776;2023-05-07T10:05:25;6.32;;;3.40;;
38427;SDS011;24211;49.980;19.776;2023-05-07T10:07:56;7.20;;;3.85;;
38427;SDS011;24211;49.980;19.776;2023-05-07T10:10:27;7.38;;;3.42;;
38427;SDS011;24211;49.980;19.776;2023-05-07T10:12:56;5.20;;;2.80;;
38427;SDS011;24211;49.980;19.776;2023-05-07T10:15:31;6.80;;;3.13;;
38427;SDS011;24211;49.980;19.776;2023-05-07T10:18:00;5.75;;;3.15;;
38427;SDS011;24211;49.980;19.776;2023-05-07T10:20:30;4.60;;;2.42;;
38427;SDS011;24211;49.980;19.776;2023-05-07T10:23:05;3.65;;;2.30;;
38427;SDS011;24211;49.980;19.776;2023-05-07T10:25:41;6.80;;;2.60;;
38427;SDS011;24211;49.980;19.776;2023-05-07T10:28:17;5.00;;;2.47;;
38427;SDS011;24211;49.980;19.776;2023-05-07T10:30:58;5.45;;;2.35;;
38427;SDS011;24211;49.980;19.776;2023-05-07T10:33:59;4.13;;;2.10;;
38427;SDS011;24211;49.980;19.776;2023-05-07T10:36:36;5.97;;;3.15;;
38427;SDS011;24211;49.980;19.776;2023-05-07T10:39:05;3.65;;;2.10;;
38427;SDS011;24211;49.980;19.776;2023-05-07T10:41:33;5.60;;;3.28;;
38427;SDS011;24211;49.980;19.776;2023-05-07T10:44:01;5.25;;;2.50;;
38427;SDS011;24211;49.980;19.776;2023-05-07T10:46:32;4.55;;;2.25;;
38427;SDS011;24211;49.980;19.776;2023-05-07T10:49:16;3.40;;;2.00;;
38427;SDS011;24211;49.980;19.776;2023-05-07T11:01:14;4.47;;;2.00;;
38427;SDS011;24211;49.980;19.776;2023-05-07T11:04:12;4.22;;;2.22;;
38427;SDS011;24211;49.980;19.776;2023-05-07T11:15:38;4.25;;;2.10;;
38427;SDS011;24211;49.980;19.776;2023-05-07T11:18:45;5.10;;;2.22;;
38427;SDS011;24211;49.980;19.776;2023-05-07T11:24:39;4.88;;;2.28;;
38427;SDS011;24211;49.980;19.776;2023-05-07T11:27:11;4.10;;;2.08;;
38427;SDS011;24211;49.980;19.776;2023-05-07T11:29:40;4.60;;;2.30;;
38427;SDS011;24211;49.980;19.776;2023-05-07T11:32:14;7.60;;;3.50;;
38427;SDS011;24211;49.980;19.776;2023-05-07T11:34:51;7.03;;;3.10;;
38427;SDS011;24211;49.980;19.776;2023-05-07T11:37:21;4.68;;;2.75;;
38427;SDS011;24211;49.980;19.776;2023-05-07T11:40:04;5.18;;;2.65;;
38427;SDS011;24211;49.980;19.776;2023-05-07T11:42:35;5.05;;;2.55;;
38427;SDS011;24211;49.980;19.776;2023-05-07T11:45:07;4.88;;;2.67;;
38427;SDS011;24211;49.980;19.776;2023-05-07T11:47:36;6.60;;;3.90;;
38427;SDS011;24211;49.980;19.776;2023-05-07T11:50:06;6.00;;;3.13;;
38427;SDS011;24211;49.980;19.776;2023-05-07T11:52:35;4.80;;;2.60;;
38427;SDS011;24211;49.980;19.776;2023-05-07T11:55:03;5.18;;;2.45;;
38427;SDS011;24211;49.980;19.776;2023-05-07T11:57:32;5.78;;;3.10;;
38427;SDS011;24211;49.980;19.776;2023-05-07T12:00:01;5.30;;;2.72;;
38427;SDS011;24211;49.980;19.776;2023-05-07T12:02:40;5.63;;;2.60;;
38427;SDS011;24211;49.980;19.776;2023-05-07T12:05:09;4.38;;;2.30;;
38427;SDS011;24211;49.980;19.776;2023-05-07T12:07:36;5.97;;;3.20;;
38427;SDS011;24211;49.980;19.776;2023-05-07T12:10:04;6.70;;;2.90;;
38427;SDS011;24211;49.980;19.776;2023-05-07T12:12:45;5.25;;;2.60;;
38427;SDS011;24211;49.980;19.776;2023-05-07T12:15:16;7.07;;;3.90;;
38427;SDS011;24211;49.980;19.776;2023-05-07T12:17:44;8.15;;;3.35;;
38427;SDS011;24211;49.980;19.776;2023-05-07T12:20:11;7.43;;;3.45;;
38427;SDS011;24211;49.980;19.776;2023-05-07T12:22:40;6.07;;;3.30;;
38427;SDS011;24211;49.980;19.776;2023-05-07T12:25:08;5.68;;;3.10;;
38427;SDS011;24211;49.980;19.776;2023-05-07T12:27:37;5.85;;;3.40;;
38427;SDS011;24211;49.980;19.776;2023-05-07T12:30:09;6.15;;;3.08;;
38427;SDS011;24211;49.980;19.776;2023-05-07T12:32:37;5.10;;;2.78;;
38427;SDS011;24211;49.980;19.776;2023-05-07T12:35:05;4.10;;;2.40;;
38427;SDS011;24211;49.980;19.776;2023-05-07T12:37:33;3.95;;;2.28;;
38427;SDS011;24211;49.980;19.776;2023-05-07T12:40:03;3.35;;;1.92;;
38427;SDS011;24211;49.980;19.776;2023-05-07T12:42:37;4.18;;;2.33;;
38427;SDS011;24211;49.980;19.776;2023-05-07T12:45:07;3.47;;;1.80;;
38427;SDS011;24211;49.980;19.776;2023-05-07T12:47:43;4.03;;;1.83;;
38427;SDS011;24211;49.980;19.776;2023-05-07T12:50:15;4.45;;;1.73;;
38427;SDS011;24211;49.980;19.776;2023-05-07T12:52:43;3.92;;;2.10;;
38427;SDS011;24211;49.980;19.776;2023-05-07T12:55:14;3.67;;;1.80;;
38427;SDS011;24211;49.980;19.776;2023-05-07T12:57:43;4.15;;;2.05;;
38427;SDS011;24211;49.980;19.776;2023-05-07T13:00:17;4.85;;;2.42;;
38427;SDS011;24211;49.980;19.776;2023-05-07T13:02:58;5.82;;;2.85;;
38427;SDS011;24211;49.980;19.776;2023-05-07T13:05:26;7.13;;;2.72;;
38427;SDS011;24211;49.980;19.776;2023-05-07T13:07:53;4.53;;;2.45;;
38427;SDS011;24211;49.980;19.776;2023-05-07T13:10:25;6.25;;;2.20;;
38427;SDS011;24211;49.980;19.776;2023-05-07T13:12:53;6.45;;;3.55;;
38427;SDS011;24211;49.980;19.776;2023-05-07T13:15:21;5.35;;;2.50;;
38427;SDS011;24211;49.980;19.776;2023-05-07T13:17:49;6.50;;;2.80;;
38427;SDS011;24211;49.980;19.776;2023-05-07T13:20:17;6.38;;;3.15;;
38427;SDS011;24211;49.980;19.776;2023-05-07T13:22:44;8.10;;;3.03;;
38427;SDS011;24211;49.980;19.776;2023-05-07T13:25:12;6.32;;;3.08;;
38427;SDS011;24211;49.980;19.776;2023-05-07T13:27:39;5.38;;;2.80;;
38427;SDS011;24211;49.980;19.776;2023-05-07T13:30:07;4.97;;;2.45;;
38427;SDS011;24211;49.980;19.776;2023-05-07T13:32:34;4.90;;;2.63;;
38427;SDS011;24211;49.980;19.776;2023-05-07T13:35:02;4.70;;;2.70;;
38427;SDS011;24211;49.980;19.776;2023-05-07T13:37:31;4.18;;;2.15;;
38427;SDS011;24211;49.980;19.776;2023-05-07T13:39:58;5.07;;;2.40;;
38427;SDS011;24211;49.980;19.776;2023-05-07T13:42:25;4.03;;;2.03;;
38427;SDS011;24211;49.980;19.776;2023-05-07T13:44:53;6.85;;;2.55;;
38427;SDS011;24211;49.980;19.776;2023-05-07T13:47:20;4.55;;;2.00;;
38427;SDS011;24211;49.980;19.776;2023-05-07T13:49:50;4.25;;;2.17;;
38427;SDS011;24211;49.980;19.776;2023-05-07T13:52:17;5.18;;;2.88;;
38427;SDS011;24211;49.980;19.776;2023-05-07T13:54:45;6.80;;;3.25;;
38427;SDS011;24211;49.980;19.776;2023-05-07T13:57:12;4.57;;;2.58;;
38427;SDS011;24211;49.980;19.776;2023-05-07T13:59:41;4.70;;;2.40;;
38427;SDS011;24211;49.980;19.776;2023-05-07T14:02:08;4.80;;;2.15;;
38427;SDS011;24211;49.980;19.776;2023-05-07T14:04:37;4.72;;;2.38;;
38427;SDS011;24211;49.980;19.776;2023-05-07T14:07:04;4.15;;;1.90;;
38427;SDS011;24211;49.980;19.776;2023-05-07T14:09:31;4.63;;;2.10;;
38427;SDS011;24211;49.980;19.776;2023-05-07T14:11:59;4.80;;;2.50;;
38427;SDS011;24211;49.980;19.776;2023-05-07T14:14:27;4.65;;;2.10;;
38427;SDS011;24211;49.980;19.776;2023-05-07T14:16:54;5.38;;;2.30;;
38427;SDS011;24211;49.980;19.776;2023-05-07T14:19:21;5.32;;;2.88;;
38427;SDS011;24211;49.980;19.776;2023-05-07T14:21:49;4.68;;;2.55;;
38427;SDS011;24211;49.980;19.776;2023-05-07T14:24:16;6.00;;;2.92;;
38427;SDS011;24211;49.980;19.776;2023-05-07T14:27:02;4.07;;;2.22;;
38427;SDS011;24211;49.980;19.776;2023-05-07T14:29:30;4.25;;;2.20;;
38427;SDS011;24211;49.980;19.776;2023-05-07T14:31:58;6.03;;;3.35;;
38427;SDS011;24211;49.980;19.776;2023-05-07T14:34:25;8.02;;;2.78;;
38427;SDS011;24211;49.980;19.776;2023-05-07T14:36:52;4.68;;;2.65;;
38427;SDS011;24211;49.980;19.776;2023-05-07T14:39:20;6.13;;;2.70;;
38427;SDS011;24211;49.980;19.776;2023-05-07T14:41:47;6.47;;;3.40;;
38427;SDS011;24211;49.980;19.776;2023-05-07T14:44:15;7.03;;;3.60;;
38427;SDS011;24211;49.980;19.776;2023-05-07T14:46:42;5.40;;;2.70;;
38427;SDS011;24211;49.980;19.776;2023-05-07T14:49:09;7.45;;;4.00;;
38427;SDS011;24211;49.980;19.776;2023-05-07T14:51:44;5.97;;;3.50;;
38427;SDS011;24211;49.980;19.776;2023-05-07T14:54:14;7.25;;;3.53;;
38427;SDS011;24211;49.980;19.776;2023-05-07T14:56:42;6.20;;;3.45;;
38427;SDS011;24211;49.980;19.776;2023-05-07T14:59:10;5.72;;;2.88;;
38427;SDS011;24211;49.980;19.776;2023-05-07T15:01:37;4.88;;;2.80;;
38427;SDS011;24211;49.980;19.776;2023-05-07T15:04:07;5.40;;;2.80;;
38427;SDS011;24211;49.980;19.776;2023-05-07T15:06:34;6.03;;;2.95;;
38427;SDS011;24211;49.980;19.776;2023-05-07T15:09:01;7.25;;;3.60;;
38427;SDS011;24211;49.980;19.776;2023-05-07T15:11:29;6.32;;;3.58;;